createdAt,value
2017-05-21T04:46:09.797Z,83.91
2017-05-21T04:46:35.271Z,84.2
2017-05-21T04:47:00.775Z,83.72
2017-05-21T04:47:26.217Z,83.91
2017-05-21T04:47:51.687Z,84.2
2017-05-21T04:48:17.134Z,83.91
2017-05-21T04:48:42.614Z,84
2017-05-21T04:49:08.092Z,83.91
2017-05-21T04:49:33.549Z,83.62
2017-05-21T04:49:59.018Z,83.81
2017-05-21T04:50:24.491Z,83.34
2017-05-21T04:50:49.941Z,83.81
2017-05-21T04:51:15.425Z,83.91
2017-05-21T04:51:40.877Z,83.53
2017-05-21T04:52:06.360Z,83.53
2017-05-21T04:52:31.816Z,83.53
2017-05-21T04:52:57.279Z,83.76
2017-05-21T04:53:22.773Z,83.57
2017-05-21T04:53:48.251Z,83.28
2017-05-21T04:54:13.708Z,83.28
2017-05-21T04:54:39.172Z,83.18
2017-05-21T04:55:04.653Z,83.28
2017-05-21T04:55:30.111Z,83.67
2017-05-21T04:55:55.588Z,83.76
2017-05-21T04:56:21.051Z,83.76
2017-05-21T04:56:46.497Z,83.67
2017-05-21T04:57:11.984Z,83.95
2017-05-21T04:57:37.449Z,83.86
2017-05-21T04:58:02.912Z,83.95
2017-05-21T04:58:28.344Z,84.05
2017-05-21T04:58:53.865Z,83.95
2017-05-21T04:59:19.317Z,84.05
2017-05-21T04:59:44.793Z,84.05
2017-05-21T05:00:10.253Z,83.95
2017-05-21T05:00:35.711Z,84.33
2017-05-21T05:01:01.176Z,84.33
2017-05-21T05:01:26.631Z,84.43
2017-05-21T05:01:52.115Z,84.38
2017-05-21T05:02:17.555Z,84.56
2017-05-21T05:02:43.006Z,83.67
2017-05-21T05:03:08.484Z,83.8
2017-05-21T05:03:33.924Z,83.28
2017-05-21T05:03:59.385Z,83
2017-05-21T05:04:24.849Z,83.18
2017-05-21T05:04:50.301Z,83.42
2017-05-21T05:05:15.766Z,83.76
2017-05-21T05:05:41.222Z,83.7
2017-05-21T05:06:06.686Z,84.19
2017-05-21T05:06:32.135Z,85.05
2017-05-21T05:06:57.615Z,85.42
2017-05-21T05:07:23.084Z,86.1
2017-05-21T05:07:48.541Z,85.24
2017-05-21T05:08:14.031Z,84.85
2017-05-21T05:08:39.510Z,85.14
2017-05-21T05:09:04.984Z,85.05
2017-05-21T05:09:30.460Z,84.66
2017-05-21T05:09:55.894Z,84.47
2017-05-21T05:10:21.362Z,83.61
2017-05-21T05:10:46.837Z,83.13
2017-05-21T05:11:12.285Z,83.04
2017-05-21T05:11:37.750Z,82.18
2017-05-21T05:12:03.229Z,81.7
2017-05-21T05:12:28.684Z,81.03
2017-05-21T05:12:54.148Z,80.93
2017-05-21T05:13:19.610Z,80.74
2017-05-21T05:13:45.075Z,80.27
2017-05-21T05:14:10.536Z,80.27
2017-05-21T05:14:35.995Z,79.6
2017-05-21T05:15:01.449Z,79.12
2017-05-21T05:15:26.926Z,79.12
2017-05-21T05:15:52.413Z,79.12
2017-05-21T05:16:17.862Z,79.31
2017-05-21T05:16:43.348Z,79.6
2017-05-21T05:17:08.811Z,79.12
2017-05-21T05:17:34.256Z,78.74
2017-05-21T05:17:59.762Z,78.45
2017-05-21T05:18:25.211Z,77.69
2017-05-21T05:18:50.689Z,77.97
2017-05-21T05:19:16.165Z,77.97
2017-05-21T05:19:41.614Z,77.59
2017-05-21T05:20:07.080Z,77.78
2017-05-21T05:20:32.534Z,77.69
2017-05-21T05:20:58.009Z,77.69
2017-05-21T05:21:23.500Z,77.63
2017-05-21T05:21:48.977Z,77.72
2017-05-21T05:22:14.416Z,77.92
2017-05-21T05:22:39.907Z,77.72
2017-05-21T05:23:05.345Z,77.82
2017-05-21T05:23:30.807Z,77.82
2017-05-21T05:23:56.304Z,77.72
2017-05-21T05:24:21.766Z,77.92
2017-05-21T05:24:47.229Z,77.44
2017-05-21T05:25:12.722Z,77.53
2017-05-21T05:25:38.185Z,77.63
2017-05-21T05:26:03.643Z,77.72
2017-05-21T05:26:29.119Z,77.72
2017-05-21T05:26:54.599Z,77.06
2017-05-21T05:27:20.062Z,77.72
2017-05-21T05:27:45.534Z,77.53
2017-05-21T05:28:10.966Z,77.53
2017-05-21T05:28:36.449Z,77.63
2017-05-21T05:29:01.896Z,76.96
2017-05-21T05:29:27.361Z,77.19
2017-05-21T05:29:52.829Z,77.19
2017-05-21T05:30:18.262Z,76.9
2017-05-21T05:30:43.736Z,76.81
2017-05-21T05:31:09.196Z,76.62
2017-05-21T05:31:34.636Z,77
2017-05-21T05:32:00.100Z,76.9
2017-05-21T05:32:25.581Z,76.71
2017-05-21T05:32:51.070Z,76.9
2017-05-21T05:33:16.514Z,76.52
2017-05-21T05:33:41.966Z,76.33
2017-05-21T05:34:07.480Z,76.62
2017-05-21T05:34:32.882Z,76.23
2017-05-21T05:34:58.380Z,76.23
2017-05-21T05:35:23.850Z,76.14
2017-05-21T05:35:49.388Z,76.14
2017-05-21T05:36:14.807Z,76.14
2017-05-21T05:36:40.262Z,76.23
2017-05-21T05:37:05.721Z,75.95
2017-05-21T05:37:31.173Z,76.18
2017-05-21T05:37:56.628Z,75.98
2017-05-21T05:38:22.078Z,75.41
2017-05-21T05:38:47.574Z,76.14
2017-05-21T05:39:13.021Z,75.7
2017-05-21T05:39:38.504Z,75.51
2017-05-21T05:40:03.975Z,75.79
2017-05-21T05:40:29.460Z,75.7
2017-05-21T05:40:54.920Z,75.51
2017-05-21T05:41:20.367Z,74.93
2017-05-21T05:41:45.833Z,75.12
2017-05-21T05:42:11.293Z,75.12
2017-05-21T05:42:36.745Z,75.51
2017-05-21T05:43:02.255Z,75.02
2017-05-21T05:43:27.739Z,74.93
2017-05-21T05:43:53.184Z,75.12
2017-05-21T05:44:18.664Z,75.02
2017-05-21T05:44:44.139Z,75.12
2017-05-21T05:45:09.624Z,74.93
2017-05-21T05:45:35.062Z,74.74
2017-05-21T05:46:00.526Z,74.84
2017-05-21T05:46:25.982Z,74.84
2017-05-21T05:46:51.451Z,74.36
2017-05-21T05:47:16.923Z,73.97
2017-05-21T05:47:42.419Z,74.26
2017-05-21T05:48:07.863Z,73.79
2017-05-21T05:48:33.342Z,73.44
2017-05-21T05:48:58.782Z,73.34
2017-05-21T05:49:24.250Z,73.34
2017-05-21T05:49:49.744Z,73.4
2017-05-21T05:50:15.205Z,73.15
2017-05-21T05:50:40.694Z,73.82
2017-05-21T05:51:06.150Z,73.63
2017-05-21T05:51:31.599Z,73.05
2017-05-21T05:51:57.056Z,72.96
2017-05-21T05:52:22.540Z,73.15
2017-05-21T05:52:47.990Z,72.67
2017-05-21T05:53:13.470Z,72.48
2017-05-21T05:53:38.947Z,72.48
2017-05-21T05:54:04.437Z,72.48
2017-05-21T05:54:29.885Z,72.77
2017-05-21T05:54:55.353Z,72.58
2017-05-21T05:55:20.825Z,72.58
2017-05-21T05:55:46.269Z,72.77
2017-05-21T05:56:11.727Z,72.38
2017-05-21T05:56:37.196Z,72.38
2017-05-21T05:57:02.669Z,72.86
2017-05-21T05:57:28.142Z,72.38
2017-05-21T05:57:53.610Z,72.67
2017-05-21T05:58:19.068Z,72.77
2017-05-21T05:58:44.566Z,72.38
2017-05-21T05:59:10.005Z,72.19
2017-05-21T05:59:35.466Z,72.19
2017-05-21T06:00:00.919Z,72
2017-05-21T06:00:26.429Z,71.71
2017-05-21T06:00:51.867Z,71.91
2017-05-21T06:01:17.327Z,71.91
2017-05-21T06:01:42.807Z,72.09
2017-05-21T06:02:08.271Z,72.38
2017-05-21T06:02:33.744Z,72.13
2017-05-21T06:02:59.237Z,72.23
2017-05-21T06:03:24.723Z,72.38
2017-05-21T06:03:50.144Z,72.32
2017-05-21T06:04:15.681Z,72.42
2017-05-21T06:04:41.161Z,72.23
2017-05-21T06:05:06.651Z,72.42
2017-05-21T06:05:32.081Z,72.42
2017-05-21T06:05:57.516Z,72.03
2017-05-21T06:06:23.011Z,72.23
2017-05-21T06:06:48.450Z,72.23
2017-05-21T06:07:13.938Z,72.13
2017-05-21T06:07:39.388Z,72.42
2017-05-21T06:08:04.839Z,72.13
2017-05-21T06:08:30.336Z,72.13
2017-05-21T06:08:55.785Z,71.75
2017-05-21T06:09:21.274Z,71.84
2017-05-21T06:09:46.712Z,71.84
2017-05-21T06:10:12.170Z,71.75
2017-05-21T06:10:37.642Z,72.42
2017-05-21T06:11:03.092Z,71.66
2017-05-21T06:11:28.618Z,71.66
2017-05-21T06:11:54.051Z,71.46
2017-05-21T06:12:19.521Z,71.17
2017-05-21T06:12:44.978Z,71.08
2017-05-21T06:13:10.472Z,71.21
2017-05-21T06:13:35.921Z,70.98
2017-05-21T06:14:01.387Z,70.44
2017-05-21T06:14:26.858Z,70.44
2017-05-21T06:14:52.341Z,70.44
2017-05-21T06:15:17.817Z,70.92
2017-05-21T06:15:43.319Z,70.06
2017-05-21T06:16:08.837Z,70.12
2017-05-21T06:16:34.276Z,69.87
2017-05-21T06:16:59.719Z,69.39
2017-05-21T06:17:25.200Z,70.15
2017-05-21T06:17:50.669Z,70.15
2017-05-21T06:18:16.159Z,70.06
2017-05-21T06:18:41.640Z,69.58
2017-05-21T06:19:07.206Z,69.68
2017-05-21T06:19:32.710Z,70.15
2017-05-21T06:19:58.152Z,69.87
2017-05-21T06:20:23.632Z,69.68
2017-05-21T06:20:49.110Z,69.77
2017-05-21T06:21:14.541Z,70.25
2017-05-21T06:21:40.024Z,69.58
2017-05-21T06:22:05.521Z,69.9
2017-05-21T06:22:30.932Z,69.9
2017-05-21T06:22:56.381Z,69.81
2017-05-21T06:23:21.860Z,69.9
2017-05-21T06:23:47.337Z,69.71
2017-05-21T06:24:12.770Z,69.62
2017-05-21T06:24:38.225Z,70.19
2017-05-21T06:25:03.706Z,70.09
2017-05-21T06:25:29.169Z,69.52
2017-05-21T06:25:54.663Z,69.42
2017-05-21T06:26:20.120Z,69.71
2017-05-21T06:26:45.575Z,69.71
2017-05-21T06:27:11.043Z,69.42
2017-05-21T06:27:36.522Z,68.95
2017-05-21T06:28:01.948Z,69.42
2017-05-21T06:28:27.417Z,69.42
2017-05-21T06:28:52.892Z,68.98
2017-05-21T06:29:18.414Z,69.17
2017-05-21T06:29:43.905Z,69.04
2017-05-21T06:30:09.333Z,68.95
2017-05-21T06:30:34.817Z,69.17
2017-05-21T06:31:00.299Z,68.69
2017-05-21T06:31:25.729Z,68.69
2017-05-21T06:31:51.215Z,68.79
2017-05-21T06:32:16.671Z,67.73
2017-05-21T06:32:42.120Z,67.92
2017-05-21T06:33:07.604Z,67.63
2017-05-21T06:33:33.062Z,67.83
2017-05-21T06:33:58.524Z,67.92
2017-05-21T06:34:24.003Z,67.92
2017-05-21T06:34:49.465Z,68.02
2017-05-21T06:35:14.942Z,67.92
2017-05-21T06:35:40.430Z,67.73
2017-05-21T06:36:05.883Z,68.4
2017-05-21T06:36:31.375Z,68.02
2017-05-21T06:36:56.849Z,67.73
2017-05-21T06:37:22.354Z,67.54
2017-05-21T06:37:47.805Z,67.63
2017-05-21T06:38:13.289Z,68.02
2017-05-21T06:38:38.773Z,67.54
2017-05-21T06:39:04.243Z,67.92
2017-05-21T06:39:29.732Z,68.21
2017-05-21T06:39:55.195Z,68.5
2017-05-21T06:40:20.749Z,68.69
2017-05-21T06:40:46.247Z,68.21
2017-05-21T06:41:11.675Z,68.53
2017-05-21T06:41:37.135Z,67.19
2017-05-21T06:42:02.620Z,67.29
2017-05-21T06:42:28.064Z,67.06
2017-05-21T06:42:53.556Z,67.19
2017-05-21T06:43:19.044Z,67.38
2017-05-21T06:43:44.488Z,67.67
2017-05-21T06:44:09.968Z,67.67
2017-05-21T06:44:35.492Z,67.29
2017-05-21T06:45:00.916Z,66.33
2017-05-21T06:45:26.376Z,66.23
2017-05-21T06:45:51.834Z,66.33
2017-05-21T06:46:17.304Z,66.33
2017-05-21T06:46:42.830Z,66.8
2017-05-21T06:47:08.247Z,67
2017-05-21T06:47:33.748Z,66.9
2017-05-21T06:47:59.225Z,66.71
2017-05-21T06:48:24.713Z,66.42
2017-05-21T06:48:50.165Z,66.61
2017-05-21T06:49:15.627Z,66.52
2017-05-21T06:49:41.103Z,66.33
2017-05-21T06:50:06.580Z,66.33
2017-05-21T06:50:32.026Z,66.13
2017-05-21T06:50:57.497Z,65.17
2017-05-21T06:51:22.980Z,65.08
2017-05-21T06:51:48.429Z,65.17
2017-05-21T06:52:13.888Z,66.03
2017-05-21T06:52:39.356Z,66.13
2017-05-21T06:53:04.840Z,65.75
2017-05-21T06:53:30.341Z,66.33
2017-05-21T06:53:55.751Z,66.13
2017-05-21T06:54:21.239Z,65.94
2017-05-21T06:54:46.700Z,66.52
2017-05-21T06:55:12.198Z,66.13
2017-05-21T06:55:37.676Z,65.65
2017-05-21T06:56:03.156Z,65.65
2017-05-21T06:56:28.635Z,65.75
2017-05-21T06:56:54.122Z,66.03
2017-05-21T06:57:19.617Z,66.07
2017-05-21T06:57:45.064Z,66.36
2017-05-21T06:58:10.566Z,66.55
2017-05-21T06:58:36.032Z,66.16
2017-05-21T06:59:01.501Z,66.16
2017-05-21T06:59:27.007Z,65.97
2017-05-21T06:59:52.448Z,66.36
2017-05-21T07:00:17.912Z,66.36
2017-05-21T07:00:43.376Z,66.55
2017-05-21T07:01:08.848Z,65.97
2017-05-21T07:01:34.315Z,65.97
2017-05-21T07:01:59.805Z,65.88
2017-05-21T07:02:25.285Z,66.3
2017-05-21T07:02:50.744Z,65.81
2017-05-21T07:03:16.234Z,65.62
2017-05-21T07:03:41.705Z,65.53
2017-05-21T07:04:07.208Z,65.23
2017-05-21T07:04:32.689Z,65.53
2017-05-21T07:04:58.120Z,66.1
2017-05-21T07:05:23.582Z,65.81
2017-05-21T07:05:49.080Z,66.1
2017-05-21T07:06:14.571Z,66
2017-05-21T07:06:40.022Z,65.62
2017-05-21T07:07:05.534Z,65.33
2017-05-21T07:07:30.979Z,65.43
2017-05-21T07:07:56.464Z,65.43
2017-05-21T07:08:21.947Z,65.23
2017-05-21T07:08:47.444Z,64.28
2017-05-21T07:09:12.871Z,64.28
2017-05-21T07:09:38.363Z,63.41
2017-05-21T07:10:03.827Z,63.41
2017-05-21T07:10:29.305Z,63.6
2017-05-21T07:10:54.779Z,64.18
2017-05-21T07:11:20.250Z,63.7
2017-05-21T07:11:45.761Z,64.09
2017-05-21T07:12:11.247Z,63.41
2017-05-21T07:12:36.718Z,63.02
2017-05-21T07:13:02.173Z,62.55
2017-05-21T07:13:27.648Z,62.45
2017-05-21T07:13:53.128Z,62.74
2017-05-21T07:14:18.640Z,62.87
2017-05-21T07:14:44.067Z,63.35
2017-05-21T07:15:09.539Z,62.87
2017-05-21T07:15:35.024Z,62.87
2017-05-21T07:16:00.484Z,62.29
2017-05-21T07:16:25.948Z,62.38
2017-05-21T07:16:51.437Z,62.1
2017-05-21T07:17:16.910Z,62.68
2017-05-21T07:17:42.380Z,62.29
2017-05-21T07:18:07.862Z,62.87
2017-05-21T07:18:33.344Z,63.06
2017-05-21T07:18:58.809Z,62.96
2017-05-21T07:19:24.288Z,62.87
2017-05-21T07:19:49.735Z,63.15
2017-05-21T07:20:15.188Z,62.87
2017-05-21T07:20:40.649Z,62.77
2017-05-21T07:21:06.101Z,62.58
2017-05-21T07:21:31.577Z,62.48
2017-05-21T07:21:57.046Z,62.29
2017-05-21T07:22:22.508Z,62.38
2017-05-21T07:22:47.984Z,62.68
2017-05-21T07:23:13.477Z,63.06
2017-05-21T07:23:38.978Z,63.25
2017-05-21T07:24:04.456Z,62.96
2017-05-21T07:24:29.946Z,62.9
2017-05-21T07:24:55.429Z,63.09
2017-05-21T07:25:20.897Z,62.99
2017-05-21T07:25:46.367Z,62.99
2017-05-21T07:26:11.864Z,62.9
2017-05-21T07:26:37.347Z,62.32
2017-05-21T07:27:02.822Z,62.41
2017-05-21T07:27:28.297Z,62.41
2017-05-21T07:27:53.796Z,62.51
2017-05-21T07:28:19.279Z,62.74
2017-05-21T07:28:44.738Z,62.23
2017-05-21T07:29:10.214Z,62.83
2017-05-21T07:29:35.701Z,62.06
2017-05-21T07:30:01.143Z,62.16
2017-05-21T07:30:26.632Z,61.87
2017-05-21T07:30:52.094Z,61.58
2017-05-21T07:31:17.553Z,61.97
2017-05-21T07:31:43.036Z,61.97
2017-05-21T07:32:08.518Z,61.77
2017-05-21T07:32:34.024Z,61.77
2017-05-21T07:32:59.426Z,61.68
2017-05-21T07:33:24.913Z,61.68
2017-05-21T07:33:50.391Z,61.68
2017-05-21T07:34:15.911Z,61.19
2017-05-21T07:34:41.376Z,61.32
2017-05-21T07:35:06.812Z,61
2017-05-21T07:35:32.296Z,60.91
2017-05-21T07:35:57.804Z,61.13
2017-05-21T07:36:23.274Z,60.94
2017-05-21T07:36:48.771Z,60.55
2017-05-21T07:37:14.250Z,59.69
2017-05-21T07:37:39.716Z,60.27
2017-05-21T07:38:05.184Z,58.92
2017-05-21T07:38:30.676Z,59.59
2017-05-21T07:38:56.165Z,59.69
2017-05-21T07:39:21.681Z,59.78
2017-05-21T07:39:47.104Z,59.4
2017-05-21T07:40:12.588Z,59.3
2017-05-21T07:40:38.066Z,59.2
2017-05-21T07:41:03.549Z,59.11
2017-05-21T07:41:29.021Z,59.3
2017-05-21T07:41:54.525Z,58.63
2017-05-21T07:42:19.985Z,58.53
2017-05-21T07:42:45.460Z,58.34
2017-05-21T07:43:10.932Z,58.24
2017-05-21T07:43:36.403Z,58.44
2017-05-21T07:44:01.886Z,58.24
2017-05-21T07:44:27.357Z,58.34
2017-05-21T07:44:52.834Z,58.53
2017-05-21T07:45:18.337Z,58.92
2017-05-21T07:45:43.807Z,58.72
2017-05-21T07:46:09.251Z,59.01
2017-05-21T07:46:34.721Z,59.3
2017-05-21T07:47:00.207Z,58.63
2017-05-21T07:47:25.684Z,58.34
2017-05-21T07:47:51.139Z,58.53
2017-05-21T07:48:16.616Z,58.82
2017-05-21T07:48:42.095Z,58.63
2017-05-21T07:49:07.608Z,58.63
2017-05-21T07:49:33.109Z,58.44
2017-05-21T07:49:58.625Z,58.53
2017-05-21T07:50:24.098Z,58.34
2017-05-21T07:50:49.597Z,57.95
2017-05-21T07:51:15.073Z,58.34
2017-05-21T07:51:40.551Z,58.24
2017-05-21T07:52:06.051Z,58.15
2017-05-21T07:52:31.478Z,58.24
2017-05-21T07:52:56.963Z,58.44
2017-05-21T07:53:22.438Z,57.79
2017-05-21T07:53:47.916Z,57.31
2017-05-21T07:54:13.378Z,57.4
2017-05-21T07:54:38.828Z,57.4
2017-05-21T07:55:04.287Z,57.98
2017-05-21T07:55:29.783Z,57.98
2017-05-21T07:55:55.256Z,57.98
2017-05-21T07:56:20.740Z,58.27
2017-05-21T07:56:46.224Z,57.98
2017-05-21T07:57:11.686Z,57.4
2017-05-21T07:57:37.132Z,57.12
2017-05-21T07:58:02.607Z,57.21
2017-05-21T07:58:28.055Z,57.31
2017-05-21T07:58:53.510Z,57.31
2017-05-21T07:59:18.989Z,56.54
2017-05-21T07:59:44.438Z,56.92
2017-05-21T08:00:09.899Z,56.92
2017-05-21T08:00:35.371Z,57.21
2017-05-21T08:01:00.819Z,57.4
2017-05-21T08:01:26.285Z,57.02
2017-05-21T08:01:51.770Z,57.31
2017-05-21T08:02:17.236Z,57.6
2017-05-21T08:02:42.712Z,57.02
2017-05-21T08:03:08.194Z,57.31
2017-05-21T08:03:33.676Z,57.72
2017-05-21T08:03:59.131Z,56.92
2017-05-21T08:04:24.597Z,56.85
2017-05-21T08:04:50.081Z,56.27
2017-05-21T08:05:15.570Z,56.47
2017-05-21T08:05:41.070Z,56.85
2017-05-21T08:06:06.548Z,56.63
2017-05-21T08:06:31.985Z,55.51
2017-05-21T08:06:57.464Z,55.31
2017-05-21T08:07:22.946Z,55.22
2017-05-21T08:07:48.449Z,55.12
2017-05-21T08:08:13.872Z,55.51
2017-05-21T08:08:39.330Z,55.79
2017-05-21T08:09:04.806Z,55.02
2017-05-21T08:09:30.284Z,54.64
2017-05-21T08:09:55.738Z,54.93
2017-05-21T08:10:21.245Z,54.93
2017-05-21T08:10:46.724Z,54.44
2017-05-21T08:11:12.220Z,53.77
2017-05-21T08:11:37.660Z,53.48
2017-05-21T08:12:03.154Z,53.67
2017-05-21T08:12:28.643Z,53.96
2017-05-21T08:12:54.140Z,53.87
2017-05-21T08:13:19.582Z,54.16
2017-05-21T08:13:45.144Z,53.87
2017-05-21T08:14:10.620Z,53.67
2017-05-21T08:14:36.046Z,53.77
2017-05-21T08:15:01.501Z,52.23
2017-05-21T08:15:26.993Z,51.84
2017-05-21T08:15:52.440Z,52.42
2017-05-21T08:16:17.917Z,52.42
2017-05-21T08:16:43.416Z,52.81
2017-05-21T08:17:08.892Z,52.23
2017-05-21T08:17:34.336Z,52.71
2017-05-21T08:17:59.797Z,52.81
2017-05-21T08:18:25.296Z,52.71
2017-05-21T08:18:50.777Z,52.61
2017-05-21T08:19:16.255Z,51.94
2017-05-21T08:19:41.707Z,51.75
2017-05-21T08:20:07.178Z,52.33
2017-05-21T08:20:32.644Z,52.23
2017-05-21T08:20:58.141Z,51.75
2017-05-21T08:21:23.604Z,50.88
2017-05-21T08:21:49.080Z,50.69
2017-05-21T08:22:14.570Z,50.88
2017-05-21T08:22:40.065Z,51.65
2017-05-21T08:23:05.551Z,52.04
2017-05-21T08:23:31.018Z,51.65
2017-05-21T08:23:56.494Z,51.56
2017-05-21T08:24:21.934Z,51.56
2017-05-21T08:24:47.415Z,51.65
2017-05-21T08:25:12.853Z,51.46
2017-05-21T08:25:38.331Z,52.04
2017-05-21T08:26:03.812Z,52.04
2017-05-21T08:26:29.321Z,51.46
2017-05-21T08:26:54.793Z,51.46
2017-05-21T08:27:20.257Z,51.46
2017-05-21T08:27:45.740Z,51.87
2017-05-21T08:28:11.211Z,51.58
2017-05-21T08:28:36.660Z,50.9
2017-05-21T08:29:02.159Z,50.32
2017-05-21T08:29:27.590Z,49.65
2017-05-21T08:29:53.053Z,48.88
2017-05-21T08:30:18.520Z,48.69
2017-05-21T08:30:43.988Z,48.4
2017-05-21T08:31:09.432Z,47.92
2017-05-21T08:31:34.902Z,47.72
2017-05-21T08:32:00.378Z,47.63
2017-05-21T08:32:25.836Z,46.95
2017-05-21T08:32:51.326Z,46.56
2017-05-21T08:33:16.804Z,46.76
2017-05-21T08:33:42.256Z,46.56
2017-05-21T08:34:07.717Z,46.18
2017-05-21T08:34:33.194Z,46.08
2017-05-21T08:34:58.685Z,46.47
2017-05-21T08:35:24.200Z,47.05
2017-05-21T08:35:49.678Z,46.18
2017-05-21T08:36:15.129Z,45.31
2017-05-21T08:36:40.585Z,44.73
2017-05-21T08:37:06.071Z,44.64
2017-05-21T08:37:31.530Z,44.93
2017-05-21T08:37:57.007Z,45.03
2017-05-21T08:38:22.467Z,44.73
2017-05-21T08:38:47.923Z,44.73
2017-05-21T08:39:13.420Z,44.83
2017-05-21T08:39:38.909Z,45.03
2017-05-21T08:40:04.412Z,45.21
2017-05-21T08:40:29.807Z,45.41
2017-05-21T08:40:55.299Z,45.7
2017-05-21T08:41:20.797Z,44.83
2017-05-21T08:41:46.255Z,43.87
2017-05-21T08:42:11.721Z,43.29
2017-05-21T08:42:37.217Z,42.8
2017-05-21T08:43:02.678Z,43.19
2017-05-21T08:43:28.157Z,43.77
2017-05-21T08:43:53.665Z,44.06
2017-05-21T08:44:19.215Z,43.96
2017-05-21T08:44:44.706Z,44.08
2017-05-21T08:45:10.167Z,44.06
2017-05-21T08:45:35.634Z,44.15
2017-05-21T08:46:01.103Z,44.08
2017-05-21T08:46:26.583Z,43.87
2017-05-21T08:46:52.059Z,44.06
2017-05-21T08:47:17.523Z,44.27
2017-05-21T08:47:43.088Z,44.56
2017-05-21T08:48:08.562Z,44.56
2017-05-21T08:48:34.025Z,44.46
2017-05-21T08:48:59.482Z,44.56
2017-05-21T08:49:24.954Z,44.46
2017-05-21T08:49:50.437Z,43.89
2017-05-21T08:50:15.900Z,43.98
2017-05-21T08:50:41.391Z,44.27
2017-05-21T08:51:06.837Z,43.98
2017-05-21T08:51:32.340Z,44.27
2017-05-21T08:51:57.800Z,43.89
2017-05-21T08:52:23.287Z,44.08
2017-05-21T08:52:48.777Z,44.18
2017-05-21T08:53:14.228Z,43.5
2017-05-21T08:53:39.703Z,43.6
2017-05-21T08:54:05.170Z,44.08
2017-05-21T08:54:30.663Z,43.6
2017-05-21T08:54:56.097Z,43.02
2017-05-21T08:55:21.557Z,43.02
2017-05-21T08:55:47.060Z,43.12
2017-05-21T08:56:12.568Z,43.21
2017-05-21T08:56:38.028Z,43.31
2017-05-21T08:57:03.504Z,43.41
2017-05-21T08:57:28.996Z,43.5
2017-05-21T08:57:54.434Z,42.73
2017-05-21T08:58:19.925Z,42.63
2017-05-21T08:58:45.419Z,42.63
2017-05-21T08:59:10.862Z,42.73
2017-05-21T08:59:36.334Z,42.83
2017-05-21T09:00:01.845Z,43.41
2017-05-21T09:00:27.286Z,43.5
2017-05-21T09:00:52.745Z,43.41
2017-05-21T09:01:18.248Z,43.98
2017-05-21T09:01:43.719Z,44.08
2017-05-21T09:02:09.188Z,44.18
2017-05-21T09:02:34.653Z,44.25
2017-05-21T09:03:00.124Z,44.45
2017-05-21T09:03:25.561Z,44.54
2017-05-21T09:03:51.243Z,44.35
2017-05-21T09:04:16.738Z,44.15
2017-05-21T09:04:42.190Z,43.98
2017-05-21T09:05:07.657Z,44.06
2017-05-21T09:05:33.117Z,44.54
2017-05-21T09:05:58.554Z,44.25
2017-05-21T09:06:24.067Z,44.73
2017-05-21T09:06:49.527Z,44.45
2017-05-21T09:07:14.988Z,44.25
2017-05-21T09:07:40.468Z,44.37
2017-05-21T09:08:05.933Z,44.56
2017-05-21T09:08:31.415Z,44.46
2017-05-21T09:08:56.875Z,44.45
2017-05-21T09:09:22.359Z,44.18
2017-05-21T09:09:47.855Z,44.08
2017-05-21T09:10:13.319Z,43.7
2017-05-21T09:10:38.761Z,43.5
2017-05-21T09:11:04.259Z,43.41
2017-05-21T09:11:29.713Z,43.41
2017-05-21T09:11:55.216Z,43.02
2017-05-21T09:12:20.671Z,43.02
2017-05-21T09:12:46.144Z,43.41
2017-05-21T09:13:11.655Z,43.41
2017-05-21T09:13:37.106Z,43.7
2017-05-21T09:14:02.580Z,42.93
2017-05-21T09:14:28.057Z,42.75
2017-05-21T09:14:53.536Z,42.83
2017-05-21T09:15:19.007Z,42.36
2017-05-21T09:15:44.498Z,42.18
2017-05-21T09:16:09.952Z,42.08
2017-05-21T09:16:35.422Z,42.18
2017-05-21T09:17:00.916Z,42.56
2017-05-21T09:17:26.391Z,42.85
2017-05-21T09:17:51.861Z,42.85
2017-05-21T09:18:17.325Z,42.56
2017-05-21T09:18:42.817Z,42.66
2017-05-21T09:19:08.284Z,42.85
2017-05-21T09:19:33.777Z,42.56
2017-05-21T09:19:59.244Z,42.66
2017-05-21T09:20:24.707Z,42.85
2017-05-21T09:20:50.183Z,42.66
2017-05-21T09:21:15.639Z,42.58
2017-05-21T09:21:41.088Z,42.58
2017-05-21T09:22:06.558Z,42.1
2017-05-21T09:22:32.038Z,42.19
2017-05-21T09:22:57.501Z,42.39
2017-05-21T09:23:22.951Z,42.48
2017-05-21T09:23:48.463Z,42.97
2017-05-21T09:24:13.911Z,42.5
2017-05-21T09:24:39.404Z,42.79
2017-05-21T09:25:04.865Z,42.99
2017-05-21T09:25:30.355Z,43.08
2017-05-21T09:25:55.847Z,42.5
2017-05-21T09:26:21.304Z,42.43
2017-05-21T09:26:46.787Z,42.04
2017-05-21T09:27:12.236Z,42.14
2017-05-21T09:27:37.676Z,41.94
2017-05-21T09:28:03.139Z,41.75
2017-05-21T09:28:28.630Z,41.17
2017-05-21T09:28:54.128Z,41.27
2017-05-21T09:29:19.582Z,40.98
2017-05-21T09:29:45.046Z,41.19
2017-05-21T09:30:10.509Z,40.71
2017-05-21T09:30:35.987Z,40.61
2017-05-21T09:31:01.471Z,40.81
2017-05-21T09:31:26.956Z,40.61
2017-05-21T09:31:52.413Z,40.42
2017-05-21T09:32:17.909Z,40.32
2017-05-21T09:32:43.362Z,39.84
2017-05-21T09:33:08.841Z,39.76
2017-05-21T09:33:34.309Z,39.47
2017-05-21T09:33:59.781Z,39.18
2017-05-21T09:34:25.250Z,39.47
2017-05-21T09:34:50.715Z,38.12
2017-05-21T09:35:16.195Z,38.21
2017-05-21T09:35:41.675Z,38.41
2017-05-21T09:36:07.133Z,38.21
2017-05-21T09:36:32.605Z,38.02
2017-05-21T09:36:58.074Z,37.63
2017-05-21T09:37:23.512Z,36.96
2017-05-21T09:37:48.990Z,36.66
2017-05-21T09:38:15.061Z,36.86
2017-05-21T09:38:40.495Z,37.24
2017-05-21T09:39:05.955Z,36.86
2017-05-21T09:39:31.460Z,36.76
2017-05-21T09:39:56.917Z,36.96
2017-05-21T09:40:22.402Z,36.94
2017-05-21T09:40:47.922Z,37.13
2017-05-21T09:41:13.368Z,37.52
2017-05-21T09:41:38.830Z,37.42
2017-05-21T09:42:04.302Z,37.32
2017-05-21T09:42:29.778Z,37.32
2017-05-21T09:42:55.241Z,37.42
2017-05-21T09:43:20.704Z,37.63
2017-05-21T09:43:46.150Z,37.71
2017-05-21T09:44:11.618Z,37.42
2017-05-21T09:44:37.089Z,37.23
2017-05-21T09:45:02.550Z,37.32
2017-05-21T09:45:28.014Z,37.32
2017-05-21T09:45:53.570Z,37.32
2017-05-21T09:46:19.061Z,37.05
2017-05-21T09:46:44.619Z,36.86
2017-05-21T09:47:10.080Z,36.38
2017-05-21T09:47:35.536Z,36.47
2017-05-21T09:48:00.995Z,36.28
2017-05-21T09:48:26.490Z,36.28
2017-05-21T09:48:51.941Z,36.26
2017-05-21T09:49:17.419Z,36.86
2017-05-21T09:49:42.878Z,36.86
2017-05-21T09:50:08.405Z,36.76
2017-05-21T09:50:33.893Z,36.96
2017-05-21T09:50:59.355Z,36.38
2017-05-21T09:51:24.841Z,35.7
2017-05-21T09:51:50.330Z,35.5
2017-05-21T09:52:15.791Z,35.6
2017-05-21T09:52:41.267Z,35.5
2017-05-21T09:53:06.730Z,35.5
2017-05-21T09:53:32.239Z,35.89
2017-05-21T09:53:57.727Z,35.99
2017-05-21T09:54:23.180Z,36.08
2017-05-21T09:54:48.662Z,36.28
2017-05-21T09:55:14.149Z,36.57
2017-05-21T09:55:39.639Z,36.18
2017-05-21T09:56:05.092Z,36.4
2017-05-21T09:56:30.595Z,36.38
2017-05-21T09:56:56.062Z,35.81
2017-05-21T09:57:21.537Z,36
2017-05-21T09:57:47.036Z,35.04
2017-05-21T09:58:12.528Z,34.36
2017-05-21T09:58:37.999Z,33.57
2017-05-21T09:59:03.485Z,33.57
2017-05-21T09:59:28.974Z,33.86
2017-05-21T09:59:54.430Z,34.15
2017-05-21T10:00:19.900Z,34.54
2017-05-21T10:00:45.342Z,34.73
2017-05-21T10:01:10.796Z,35.02
2017-05-21T10:01:36.281Z,34.83
2017-05-21T10:02:01.750Z,34.92
2017-05-21T10:02:27.208Z,35.02
2017-05-21T10:02:52.675Z,35.31
2017-05-21T10:03:18.158Z,35.5
2017-05-21T10:03:43.626Z,35.5
2017-05-21T10:04:09.089Z,35.21
2017-05-21T10:04:34.561Z,35.31
2017-05-21T10:05:00.074Z,34.83
2017-05-21T10:05:25.527Z,35.12
2017-05-21T10:05:50.988Z,35.29
2017-05-21T10:06:16.453Z,35.39
2017-05-21T10:06:41.943Z,35.78
2017-05-21T10:07:07.398Z,35.88
2017-05-21T10:07:32.888Z,35.88
2017-05-21T10:07:58.364Z,35.88
2017-05-21T10:08:23.834Z,35.58
2017-05-21T10:08:49.291Z,35.6
2017-05-21T10:09:14.750Z,35.78
2017-05-21T10:09:40.229Z,35.8
2017-05-21T10:10:05.711Z,36.08
2017-05-21T10:10:31.217Z,36.18
2017-05-21T10:10:56.676Z,36.66
2017-05-21T10:11:22.160Z,35.89
2017-05-21T10:11:47.626Z,34.34
2017-05-21T10:12:13.117Z,34.25
2017-05-21T10:12:38.603Z,34.25
2017-05-21T10:13:04.092Z,34.25
2017-05-21T10:13:29.563Z,33.76
2017-05-21T10:13:55.049Z,33.86
2017-05-21T10:14:20.496Z,33.47
2017-05-21T10:14:45.988Z,34.05
2017-05-21T10:15:11.467Z,34.15